createdAt,value
2023-04-02T00:09:38.692Z,7.55
2023-04-02T00:20:20.607Z,8.52
2023-04-02T00:31:12.667Z,6.57
2023-04-02T00:42:07.361Z,7.30
2023-04-02T00:54:24.988Z,12.68
2023-04-02T01:00:53.273Z,9.70
2023-04-02T01:11:56.791Z,10.30
2023-04-02T01:23:06.204Z,11.00
2023-04-02T01:38:27.778Z,10.80
2023-04-02T01:48:54.919Z,9.93
2023-04-02T01:59:46.388Z,10.52
2023-04-02T02:11:52.470Z,10.93
2023-04-02T02:18:25.086Z,11.93
2023-04-02T02:29:35.617Z,12.10
2023-04-02T02:40:39.769Z,10.98
2023-04-02T02:56:04.744Z,11.63
2023-04-02T03:06:53.209Z,10.82
2023-04-02T04:02:08.349Z,7.80
2023-04-02T04:08:45.056Z,6.43
2023-04-02T04:24:17.668Z,4.38
2023-04-02T04:31:00.878Z,4.95
2023-04-02T04:50:46.409Z,4.05
2023-04-02T05:01:48.823Z,4.65
2023-04-02T05:28:13.583Z,3.30
2023-04-02T05:38:56.947Z,3.03
2023-04-02T06:14:56.050Z,3.28
2023-04-02T06:25:56.237Z,2.33
2023-04-02T06:32:27.801Z,1.83
2023-04-02T06:38:59.432Z,1.60
2023-04-02T06:58:21.417Z,1.77
2023-04-02T07:04:49.045Z,2.47
2023-04-02T07:26:55.672Z,3.60
2023-04-02T07:42:11.443Z,3.65
2023-04-02T07:53:04.140Z,7.43
2023-04-02T08:03:56.950Z,8.77
2023-04-02T08:10:24.590Z,10.73
2023-04-02T08:16:56.661Z,10.20
2023-04-02T08:23:25.087Z,12.82
2023-04-02T08:34:16.610Z,12.63
2023-04-02T08:45:25.406Z,10.48
2023-04-02T09:09:14.992Z,8.13
2023-04-02T09:15:44.265Z,6.68
2023-04-02T09:26:48.257Z,7.05
2023-04-02T09:33:15.956Z,5.00
2023-04-02T09:39:44.081Z,4.38
2023-04-02T09:46:26.866Z,4.88
2023-04-02T10:00:35.260Z,4.43
2023-04-02T10:07:34.922Z,4.63
2023-04-02T10:29:45.265Z,6.43
2023-04-02T10:49:38.731Z,5.10
2023-04-02T11:00:35.297Z,4.88
2023-04-02T11:07:15.108Z,5.60
2023-04-02T11:22:29.266Z,4.25
2023-04-02T11:39:59.606Z,5.07
2023-04-02T11:46:40.642Z,5.18
2023-04-02T11:57:41.485Z,5.03
2023-04-02T12:17:36.989Z,5.63
2023-04-02T12:24:06.093Z,5.97
2023-04-02T12:34:58.433Z,5.65
2023-04-02T12:45:53.545Z,6.65
2023-04-02T13:02:21.579Z,5.53
2023-04-02T13:14:35.998Z,8.88
2023-04-02T13:21:28.065Z,8.05
2023-04-02T13:27:57.877Z,6.60
2023-04-02T13:34:24.858Z,6.88
2023-04-02T13:49:44.486Z,6.40
2023-04-02T13:56:11.287Z,5.95
2023-04-02T14:22:50.087Z,8.65
2023-04-02T14:38:01.614Z,7.13
2023-04-02T14:57:19.151Z,7.10
2023-04-02T15:12:29.487Z,6.18
2023-04-02T15:28:03.926Z,5.80
2023-04-02T15:39:14.356Z,5.88
2023-04-02T15:43:22.234Z,7.18
2023-04-02T16:07:23.049Z,7.65
2023-04-02T16:13:49.452Z,6.78
2023-04-02T16:20:32.268Z,6.45
2023-04-02T16:35:53.579Z,5.68
2023-04-02T16:46:45.098Z,5.10
2023-04-02T16:57:41.009Z,4.60
2023-04-02T17:13:14.544Z,4.45
2023-04-02T17:24:17.737Z,4.35
2023-04-02T17:43:34.227Z,4.53
2023-04-02T17:50:08.153Z,4.45
2023-04-02T18:17:16.195Z,4.45
2023-04-02T18:24:31.933Z,4.88
2023-04-02T18:31:14.140Z,4.82
2023-04-02T18:53:16.121Z,4.40
2023-04-02T19:08:48.283Z,4.80
2023-04-02T19:36:03.218Z,4.28
2023-04-02T19:46:53.230Z,4.13
2023-04-02T19:53:20.505Z,5.10
2023-04-02T20:04:11.409Z,6.43
2023-04-02T20:19:04.603Z,6.90
2023-04-02T20:30:20.800Z,7.80
2023-04-02T20:41:11.530Z,6.00
2023-04-02T20:52:02.609Z,8.15
2023-04-02T21:07:15.756Z,7.70
2023-04-02T21:14:56.727Z,8.32
2023-04-02T21:21:23.428Z,8.20
2023-04-02T21:29:06.239Z,7.88
2023-04-02T21:40:09.051Z,10.20
2023-04-02T21:55:33.435Z,8.55
2023-04-02T22:06:27.826Z,8.77
2023-04-02T22:32:33.457Z,5.18
2023-04-02T22:39:01.668Z,5.43
2023-04-02T22:45:28.740Z,3.92
2023-04-02T22:51:56.609Z,3.72
2023-04-02T22:58:27.117Z,4.15
2023-04-02T23:04:55.559Z,3.58
2023-04-02T23:11:26.544Z,3.28
2023-04-02T23:22:17.990Z,3.53
2023-04-02T23:35:12.834Z,3.53
2023-04-02T23:41:42.918Z,3.67
2023-04-02T23:48:10.743Z,3.35
2023-04-02T23:54:38.891Z,3.28
